createdAt,value
2019-03-06T00:01:52.385Z,99000.47
2019-03-06T00:07:11.025Z,98994.94
2019-03-06T00:12:30.175Z,98998.28
2019-03-06T00:17:48.810Z,98988.10
2019-03-06T00:23:08.383Z,98988.53
2019-03-06T00:28:27.007Z,98978.70
2019-03-06T00:33:45.913Z,98975.18
2019-03-06T00:39:07.365Z,98971.25
2019-03-06T00:44:26.073Z,98966.68
2019-03-06T00:49:44.623Z,98971.97
2019-03-06T00:55:03.343Z,98964.17
2019-03-06T01:00:24.602Z,98956.16
2019-03-06T01:05:43.217Z,98962.12
2019-03-06T01:11:01.772Z,98957.54
2019-03-06T01:16:20.385Z,98946.34
2019-03-06T01:21:39.012Z,98949.27
2019-03-06T01:26:57.575Z,98946.71
2019-03-06T01:32:16.529Z,98940.20
2019-03-06T01:37:36.900Z,98929.89
2019-03-06T01:42:59.869Z,98919.22
2019-03-06T01:48:18.482Z,98904.49
2019-03-06T01:53:37.132Z,98907.55
2019-03-06T01:58:55.798Z,98896.16
2019-03-06T02:04:14.763Z,98881.48
2019-03-06T02:09:34.091Z,98871.77
2019-03-06T02:14:52.637Z,98863.95
2019-03-06T02:20:16.129Z,98861.52
2019-03-06T02:25:34.746Z,98862.34
2019-03-06T02:30:53.363Z,98863.66
2019-03-06T02:36:12.250Z,98857.89
2019-03-06T02:41:30.857Z,98842.91
2019-03-06T02:46:49.747Z,98818.59
2019-03-06T02:52:08.538Z,98812.10
2019-03-06T02:57:27.324Z,98800.66
2019-03-06T03:02:47.440Z,98788.89
2019-03-06T03:08:06.173Z,98802.47
2019-03-06T03:13:24.994Z,98790.70
2019-03-06T03:18:43.601Z,98783.52
2019-03-06T03:24:02.068Z,98765.89
2019-03-06T03:29:20.643Z,98765.47
2019-03-06T03:34:39.244Z,98774.70
2019-03-06T03:39:57.737Z,98750.89
2019-03-06T03:45:17.138Z,98751.59
2019-03-06T03:50:35.678Z,98739.94
2019-03-06T03:55:54.249Z,98752.20
2019-03-06T04:01:13.290Z,98744.69
2019-03-06T04:06:31.853Z,98753.12
2019-03-06T04:11:50.390Z,98749.66
2019-03-06T04:17:08.933Z,98740.92
2019-03-06T04:22:27.832Z,98727.44
2019-03-06T04:27:46.395Z,98714.63
2019-03-06T04:33:05.003Z,98701.86
2019-03-06T04:38:23.475Z,98707.02
2019-03-06T04:43:43.508Z,98722.52
2019-03-06T04:49:02.049Z,98719.06
2019-03-06T04:54:20.590Z,98705.23
2019-03-06T04:59:39.157Z,98716.26
2019-03-06T05:04:57.747Z,98702.98
2019-03-06T05:10:16.442Z,98680.48
2019-03-06T05:15:35.067Z,98665.26
2019-03-06T05:20:53.636Z,98654.31
2019-03-06T05:26:12.105Z,98645.56
2019-03-06T05:31:30.725Z,98642.59
2019-03-06T05:37:17.606Z,98648.70
2019-03-06T05:42:36.131Z,98640.49
2019-03-06T05:47:54.952Z,98643.14
2019-03-06T05:53:13.502Z,98633.71
2019-03-06T05:58:31.976Z,98629.78
2019-03-06T06:03:50.512Z,98606.37
2019-03-06T06:09:09.131Z,98595.39
2019-03-06T06:14:27.977Z,98580.78
2019-03-06T06:19:46.661Z,98581.48
2019-03-06T06:25:05.981Z,98576.31
2019-03-06T06:30:24.724Z,98549.05
2019-03-06T06:35:43.331Z,98549.05
2019-03-06T06:41:01.863Z,98544.48
2019-03-06T06:46:20.407Z,98539.23
2019-03-06T06:52:10.640Z,98529.27
2019-03-06T06:57:40.884Z,98520.06
2019-03-06T07:03:29.106Z,98506.56
2019-03-06T07:08:49.654Z,98488.66
2019-03-06T07:14:09.900Z,98483.02
2019-03-06T07:19:30.080Z,98466.19
2019-03-06T07:24:52.931Z,98453.34
2019-03-06T07:30:26.515Z,98453.78
2019-03-06T07:36:00.270Z,98442.38
2019-03-06T07:41:32.747Z,98440.77
2019-03-06T07:46:53.114Z,98438.18
2019-03-06T07:52:16.480Z,98432.97
2019-03-06T07:57:43.821Z,98440.44
2019-03-06T08:03:05.250Z,98437.31
2019-03-06T08:08:23.751Z,98459.81
2019-03-06T08:13:43.881Z,98443.22
2019-03-06T08:19:07.081Z,98437.41
2019-03-06T08:24:30.775Z,98436.14
2019-03-06T08:29:49.428Z,98410.12
2019-03-06T08:35:10.774Z,98414.44
2019-03-06T08:40:29.246Z,98403.19
2019-03-06T08:46:07.754Z,98407.16
2019-03-06T08:51:28.011Z,98402.39
2019-03-06T08:57:04.493Z,98399.50
2019-03-06T09:02:29.418Z,98411.57
2019-03-06T09:08:02.234Z,98406.87
2019-03-06T09:13:28.491Z,98411.20
2019-03-06T09:18:52.207Z,98401.80
2019-03-06T09:24:15.461Z,98384.09
2019-03-06T09:29:38.117Z,98369.62
2019-03-06T09:35:16.161Z,98367.03
2019-03-06T09:40:36.434Z,98337.94
2019-03-06T09:46:05.233Z,98330.92
2019-03-06T09:51:32.951Z,98321.42
2019-03-06T09:56:53.213Z,98305.33
2019-03-06T10:02:19.618Z,98302.19
2019-03-06T10:07:39.894Z,98285.45
2019-03-06T10:13:06.237Z,98258.70
2019-03-06T10:18:30.041Z,98275.05
2019-03-06T10:23:49.055Z,98277.76
2019-03-06T10:29:08.277Z,98282.70
2019-03-06T10:34:26.903Z,98273.98
2019-03-06T10:39:45.755Z,98270.89
2019-03-06T10:45:06.177Z,98258.81
2019-03-06T10:50:28.254Z,98269.47
2019-03-06T10:55:45.437Z,98255.72
2019-03-06T11:01:04.941Z,98254.63
2019-03-06T11:06:23.554Z,98239.70
2019-03-06T11:11:42.173Z,98250.70
2019-03-06T11:17:00.998Z,98244.00
2019-03-06T11:22:19.787Z,98235.94
2019-03-06T11:27:38.394Z,98234.27
2019-03-06T11:32:57.217Z,98214.61
2019-03-06T11:38:15.939Z,98195.37
2019-03-06T11:43:34.556Z,98194.42
2019-03-06T11:48:53.450Z,98186.41
2019-03-06T11:54:12.241Z,98166.13
2019-03-06T11:59:30.826Z,98152.00
2019-03-06T12:04:49.452Z,98131.98
2019-03-06T12:10:10.320Z,98124.25
2019-03-06T12:15:29.544Z,98122.86
2019-03-06T12:20:49.477Z,98136.25
2019-03-06T12:26:08.658Z,98100.50
2019-03-06T12:31:27.221Z,98098.91
2019-03-06T12:36:45.863Z,98116.80
2019-03-06T12:42:13.785Z,98084.51
2019-03-06T12:47:25.122Z,98076.44
2019-03-06T12:52:43.662Z,98059.91
2019-03-06T12:58:02.376Z,98049.47
2019-03-06T13:03:20.993Z,98039.64
2019-03-06T13:08:49.571Z,98029.58
2019-03-06T13:13:59.951Z,98029.33
2019-03-06T13:19:18.637Z,98008.25
2019-03-06T13:24:37.251Z,98009.31
2019-03-06T13:29:55.788Z,97990.41
2019-03-06T13:35:14.882Z,97989.90
2019-03-06T13:40:33.525Z,97976.58
2019-03-06T13:45:52.299Z,97962.42
2019-03-06T13:51:10.911Z,97952.34
2019-03-06T13:56:31.189Z,97941.12
2019-03-06T14:01:49.732Z,97948.58
2019-03-06T14:07:08.519Z,97967.48
2019-03-06T14:12:27.150Z,97960.25
2019-03-06T14:17:45.937Z,97953.85
2019-03-06T14:23:04.654Z,97959.09
2019-03-06T14:28:23.298Z,97964.95
2019-03-06T14:33:41.907Z,97955.13
2019-03-06T14:39:00.531Z,97961.03
2019-03-06T14:44:19.170Z,97981.13
2019-03-06T14:49:38.820Z,97984.10
2019-03-06T14:54:57.447Z,97966.86
2019-03-06T15:00:20.134Z,97958.55
2019-03-06T15:05:46.876Z,97930.22
2019-03-06T15:10:59.282Z,97930.22
2019-03-06T15:16:19.507Z,97929.03
2019-03-06T15:21:38.153Z,97924.02
2019-03-06T15:26:56.854Z,97912.02
2019-03-06T15:32:15.575Z,97912.02
2019-03-06T15:37:34.530Z,97900.09
2019-03-06T15:42:53.250Z,97900.34
2019-03-06T15:48:11.901Z,97872.77
2019-03-06T15:53:30.534Z,97887.06
2019-03-06T15:58:51.419Z,97888.17
2019-03-06T16:04:10.255Z,97875.00
2019-03-06T16:09:28.915Z,97864.81
2019-03-06T16:14:49.555Z,97848.61
2019-03-06T16:20:15.080Z,97840.27
2019-03-06T16:25:37.919Z,97833.83
2019-03-06T16:30:54.374Z,97827.66
2019-03-06T16:36:13.030Z,97836.48
2019-03-06T16:41:32.029Z,97830.20
2019-03-06T16:46:50.669Z,97831.09
2019-03-06T16:52:09.386Z,97828.71
2019-03-06T16:57:27.978Z,97811.66
2019-03-06T17:02:46.885Z,97810.78
2019-03-06T17:08:28.768Z,97794.84
2019-03-06T17:13:36.998Z,97807.45
2019-03-06T17:18:56.592Z,97801.92
2019-03-06T17:24:16.660Z,97811.45
2019-03-06T17:29:35.383Z,97807.13
2019-03-06T17:34:54.055Z,97804.19
2019-03-06T17:40:13.972Z,97811.09
2019-03-06T17:45:33.063Z,97820.69
2019-03-06T17:50:54.007Z,97815.56
2019-03-06T17:56:13.725Z,97811.09
2019-03-06T18:01:32.345Z,97796.15
2019-03-06T18:06:51.243Z,97804.57
2019-03-06T18:12:16.046Z,97791.84
2019-03-06T18:17:35.517Z,97781.61
2019-03-06T18:23:03.929Z,97785.02
2019-03-06T18:28:22.622Z,97788.39
2019-03-06T18:33:41.275Z,97782.94
2019-03-06T18:39:00.196Z,97783.20
2019-03-06T18:44:18.847Z,97768.46
2019-03-06T18:49:37.465Z,97761.02
2019-03-06T18:54:56.004Z,97748.06
2019-03-06T19:00:33.485Z,97740.44
2019-03-06T19:05:51.831Z,97747.34
2019-03-06T19:11:16.890Z,97746.31
2019-03-06T19:16:31.181Z,97738.42
2019-03-06T19:21:49.821Z,97724.22
2019-03-06T19:27:10.156Z,97704.06
2019-03-06T19:32:28.792Z,97697.80
2019-03-06T19:37:47.540Z,97683.27
2019-03-06T19:43:06.182Z,97679.03
2019-03-06T19:48:25.983Z,97692.52
2019-03-06T19:53:44.840Z,97687.50
2019-03-06T19:59:03.543Z,97691.13
2019-03-06T20:04:22.400Z,97700.41
2019-03-06T20:09:43.811Z,97707.82
2019-03-06T20:15:02.482Z,97695.59
2019-03-06T20:20:21.196Z,97691.83
2019-03-06T20:25:39.834Z,97689.92
2019-03-06T20:30:58.507Z,97680.14
2019-03-06T20:36:17.195Z,97679.83
2019-03-06T20:41:36.355Z,97675.58
2019-03-06T20:46:55.069Z,97675.84
2019-03-06T20:52:13.559Z,97667.16
2019-03-06T20:57:32.145Z,97659.45
2019-03-06T21:02:50.831Z,97657.23
2019-03-06T21:08:09.477Z,97659.88
2019-03-06T21:13:28.607Z,97661.79
2019-03-06T21:18:47.289Z,97667.30
2019-03-06T21:24:05.926Z,97655.39
2019-03-06T21:29:25.918Z,97646.06
2019-03-06T21:34:44.398Z,97639.48
2019-03-06T21:40:03.044Z,97625.66
2019-03-06T21:45:21.962Z,97623.30
2019-03-06T21:50:40.656Z,97617.22
2019-03-06T21:55:59.372Z,97615.37
2019-03-06T22:01:19.604Z,97608.77
2019-03-06T22:06:38.143Z,97611.18
2019-03-06T22:11:56.707Z,97606.42
2019-03-06T22:17:15.260Z,97605.84
2019-03-06T22:22:35.516Z,97597.12
2019-03-06T22:27:54.744Z,97597.36
2019-03-06T22:33:13.467Z,97588.89
2019-03-06T22:38:32.160Z,97573.77
2019-03-06T22:43:52.513Z,97567.66
2019-03-06T22:49:11.065Z,97567.66
2019-03-06T22:54:29.979Z,97554.70
2019-03-06T22:59:48.619Z,97547.88
2019-03-06T23:05:08.330Z,97541.41
2019-03-06T23:10:26.939Z,97527.95
2019-03-06T23:15:45.582Z,97520.23
2019-03-06T23:21:04.244Z,97507.27
2019-03-06T23:26:22.941Z,97487.88
2019-03-06T23:31:41.720Z,97482.08
2019-03-06T23:37:00.343Z,97470.67
2019-03-06T23:42:19.035Z,97463.83
2019-03-06T23:47:37.652Z,97459.62
2019-03-06T23:53:06.616Z,97446.41
2019-03-06T23:58:25.112Z,97439.55
